Spring Glen, Washington
Current Conditions -  °F | °C
As of 12:53 AM on Wednesday 26 Nov 2014 (Local Time) from KRNT Reporting Station
Overcast Overcast  
Wind Chill: 57°   Ceiling: 1700
Heat Index: 57°   Visibility: 10mi
Dew Point: 54°   Wind: 12mph
Humidity: 89%   Direction: 140°SE
Pressure: 30.17"   Gusts: 20mph
Location:  47.6631°N, 121.723°W
Report Text: KRNT 260853Z AUTO 14010G17KT 10SM OVC017 14/12 A3017 RMK AO2 RAB14E32 SLP223 P0000 60000 T01390122 50004
Loading
Personal Weather Stations






























Interactive Weather Map New forecast layout! Learn more

10-Day Weather Forecast

Advertisements
Track Severe Weather on mobile